createdAt,value
2022-08-08T00:00:51.364Z,0.7
2022-08-08T00:01:00.618Z,0.7
2022-08-08T00:02:30.678Z,0.7
2022-08-08T00:03:20.445Z,0.7
2022-08-08T00:04:25.134Z,0.7
2022-08-08T00:05:43.664Z,0.7
2022-08-08T00:06:40.362Z,0.7
2022-08-08T00:07:48.937Z,0.8
2022-08-08T00:08:57.347Z,0.8
2022-08-08T00:10:05.704Z,0.8
2022-08-08T00:11:14.726Z,0.7
2022-08-08T00:12:23.673Z,0.7
2022-08-08T00:14:16.146Z,0.7
2022-08-08T00:14:47.861Z,0.8
2022-08-08T00:15:56.242Z,0.8
2022-08-08T00:16:56.354Z,0.8
2022-08-08T00:18:04.910Z,0.8
2022-08-08T00:19:13.269Z,0.8
2022-08-08T00:20:21.645Z,0.8
2022-08-08T00:21:30.202Z,0.7
2022-08-08T00:22:39.560Z,0.7
2022-08-08T00:23:47.545Z,0.7
2022-08-08T00:24:55.513Z,0.7
2022-08-08T00:26:03.885Z,0.7
2022-08-08T00:27:12.255Z,0.7
2022-08-08T00:28:34.009Z,0.7
2022-08-08T00:29:44.686Z,0.7
2022-08-08T00:30:37.544Z,0.7
2022-08-08T00:32:16.058Z,0.8
2022-08-08T00:32:54.489Z,0.8
2022-08-08T00:34:17.073Z,0.8
2022-08-08T00:35:15.307Z,0.8
2022-08-08T00:36:19.783Z,0.8
2022-08-08T00:37:45.499Z,0.8
2022-08-08T00:38:44.645Z,0.7
2022-08-08T00:41:08.262Z,0.7
2022-08-08T00:41:08.664Z,0.7
2022-08-08T00:42:08.771Z,0.9
2022-08-08T00:43:12.063Z,0.9
2022-08-08T00:44:18.830Z,0.9
2022-08-08T00:45:29.438Z,0.7
2022-08-08T00:46:56.466Z,0.7
2022-08-08T00:48:01.793Z,0.7
2022-08-08T00:48:59.575Z,1.1
2022-08-08T00:50:01.078Z,1.1
2022-08-08T00:51:09.688Z,1.1
2022-08-08T00:52:19.768Z,0.8
2022-08-08T00:53:29.357Z,0.8
2022-08-08T00:54:34.748Z,0.8
2022-08-08T00:55:53.616Z,0.9
2022-08-08T00:56:51.688Z,0.9
2022-08-08T00:58:00.068Z,0.9
2022-08-08T00:59:08.625Z,0.8
2022-08-08T01:00:16.995Z,0.8
2022-08-08T01:01:29.545Z,0.8
2022-08-08T01:03:15.465Z,0.8
2022-08-08T01:04:00.657Z,0.8
2022-08-08T01:04:50.689Z,0.8
2022-08-08T01:06:00.756Z,1
2022-08-08T01:07:07.631Z,1
2022-08-08T01:08:16.024Z,1
2022-08-08T01:09:35.196Z,1
2022-08-08T01:10:32.973Z,1
2022-08-08T01:11:41.339Z,1
2022-08-08T01:12:49.932Z,0.9
2022-08-08T01:13:58.702Z,0.9
2022-08-08T01:15:07.043Z,0.9
2022-08-08T01:16:16.841Z,0.7
2022-08-08T01:17:25.355Z,0.7
2022-08-08T01:18:50.870Z,0.7
2022-08-08T01:19:42.532Z,0.9
2022-08-08T01:20:48.882Z,0.9
2022-08-08T01:22:03.978Z,0.9
2022-08-08T01:23:05.843Z,0.6
2022-08-08T01:24:16.828Z,0.6
2022-08-08T01:25:26.029Z,0.6
2022-08-08T01:26:31.142Z,1
2022-08-08T01:27:43.431Z,1
2022-08-08T01:28:47.867Z,1
2022-08-08T01:29:58.968Z,0.8
2022-08-08T01:31:06.001Z,0.8
2022-08-08T01:32:16.340Z,0.8
2022-08-08T01:33:24.175Z,0.7
2022-08-08T01:34:30.131Z,0.7
2022-08-08T01:35:40.574Z,0.7
2022-08-08T01:36:48.511Z,0.8
2022-08-08T01:37:57.959Z,0.8
2022-08-08T01:39:03.846Z,0.8
2022-08-08T01:40:14.542Z,0.8
2022-08-08T01:41:20.758Z,0.8
2022-08-08T01:42:36.032Z,0.8
2022-08-08T01:43:38.558Z,1
2022-08-08T01:44:50.501Z,1
2022-08-08T01:45:56.355Z,1
2022-08-08T01:47:05.825Z,1
2022-08-08T01:48:15.186Z,1
2022-08-08T01:49:23.168Z,1
2022-08-08T01:50:29.659Z,1
2022-08-08T01:52:02.456Z,1
2022-08-08T01:53:06.493Z,1
2022-08-08T01:54:33.434Z,0.9
2022-08-08T01:55:15.291Z,0.9
2022-08-08T01:56:27.986Z,0.9
2022-08-08T01:57:18.924Z,0.9
2022-08-08T01:58:32.156Z,0.9
2022-08-08T01:59:38.452Z,0.9
2022-08-08T02:00:44.234Z,1
2022-08-08T02:01:55.128Z,1
2022-08-08T02:03:00.935Z,1
2022-08-08T02:04:09.544Z,1.1
2022-08-08T02:05:17.865Z,1.1
2022-08-08T02:06:32.038Z,1.1
2022-08-08T02:07:37.050Z,1.2
2022-08-08T02:08:45.662Z,1.2
2022-08-08T02:10:02.910Z,1.2
2022-08-08T02:11:00.089Z,1.2
2022-08-08T02:12:08.450Z,1.2
2022-08-08T02:13:53.486Z,1.2
2022-08-08T02:14:25.383Z,1.1
2022-08-08T02:15:34.660Z,1.1
2022-08-08T02:16:42.712Z,1.1
2022-08-08T02:17:50.678Z,0.9
2022-08-08T02:18:59.487Z,0.9
2022-08-08T02:20:09.645Z,0.9
2022-08-08T02:21:18.014Z,1
2022-08-08T02:22:28.013Z,1
2022-08-08T02:23:35.222Z,1
2022-08-08T02:24:41.267Z,1
2022-08-08T02:25:49.658Z,1
2022-08-08T02:27:00.923Z,1
2022-08-08T02:28:06.567Z,1
2022-08-08T02:29:18.619Z,1
2022-08-08T02:30:24.916Z,1
2022-08-08T02:31:43.768Z,1
2022-08-08T02:32:40.273Z,1
2022-08-08T02:34:00.215Z,1
2022-08-08T02:35:06.590Z,1.1
2022-08-08T02:36:05.752Z,1.1
2022-08-08T02:37:51.642Z,1.1
2022-08-08T02:38:25.187Z,1.1
2022-08-08T02:39:40.191Z,1.1
2022-08-08T02:40:39.278Z,1.1
2022-08-08T02:41:59.803Z,1.1
2022-08-08T02:43:00.551Z,1.1
2022-08-08T02:44:36.501Z,1.1
2022-08-08T02:45:18.415Z,1.1
2022-08-08T02:46:21.463Z,1.1
2022-08-08T02:47:29.758Z,1.1
2022-08-08T02:48:38.343Z,1.2
2022-08-08T02:49:47.661Z,1.2
2022-08-08T02:50:55.867Z,1.2
2022-08-08T02:52:11.556Z,1
2022-08-08T02:53:12.004Z,1
2022-08-08T02:54:20.373Z,1
2022-08-08T02:55:31.757Z,1.3
2022-08-08T02:56:37.302Z,1.3
2022-08-08T02:57:45.783Z,1.3
2022-08-08T02:58:54.239Z,1.1
2022-08-08T03:00:27.308Z,1.1
2022-08-08T03:01:14.561Z,1.1
2022-08-08T03:02:19.987Z,1.2
2022-08-08T03:03:46.493Z,1.2
2022-08-08T03:05:01.949Z,1.2
2022-08-08T03:05:46.654Z,1.1
2022-08-08T03:06:53.209Z,1.1
2022-08-08T03:08:01.581Z,1.1
2022-08-08T03:09:10.143Z,1.2
2022-08-08T03:10:31.901Z,1.2
2022-08-08T03:11:47.587Z,1.2
2022-08-08T03:12:36.146Z,1.3
2022-08-08T03:15:55.225Z,1.3
2022-08-08T03:15:55.259Z,1.3
2022-08-08T03:16:05.462Z,1.2
2022-08-08T03:17:09.096Z,1.2
2022-08-08T03:18:30.890Z,1.2
2022-08-08T03:19:26.027Z,1.1
2022-08-08T03:20:34.395Z,1.1
2022-08-08T03:21:55.062Z,1.1
2022-08-08T03:22:56.615Z,1.1
2022-08-08T03:24:02.078Z,1.1
2022-08-08T03:25:09.400Z,1.1
2022-08-08T03:26:16.608Z,1.4
2022-08-08T03:27:26.981Z,1.4
2022-08-08T03:28:33.326Z,1.4
2022-08-08T03:29:55.434Z,1.2
2022-08-08T03:31:07.741Z,1.2
2022-08-08T03:32:05.719Z,1.2
2022-08-08T03:33:54.406Z,1
2022-08-08T03:34:16.814Z,1
2022-08-08T03:35:25.175Z,1
2022-08-08T03:36:33.748Z,1.2
2022-08-08T03:38:00.549Z,1.2
2022-08-08T03:38:55.481Z,1.2
2022-08-08T03:40:00.339Z,1.3
2022-08-08T03:41:08.761Z,1.3
2022-08-08T03:42:28.954Z,1.3
2022-08-08T03:43:24.308Z,1.4
2022-08-08T03:44:32.687Z,1.4
2022-08-08T03:46:02.926Z,1.4
2022-08-08T03:46:49.603Z,1.3
2022-08-08T03:47:57.978Z,1.3
2022-08-08T03:49:10.298Z,1.3
2022-08-08T03:50:19.859Z,1.4
2022-08-08T03:51:26.456Z,1.4
2022-08-08T03:52:32.417Z,1.4
2022-08-08T03:53:42.799Z,1.5
2022-08-08T03:54:52.242Z,1.5
2022-08-08T03:56:04.706Z,1.5
2022-08-08T03:58:08.711Z,1.2
2022-08-08T03:58:32.709Z,1.2
2022-08-08T03:59:22.461Z,1.2
2022-08-08T04:00:31.009Z,1.4
2022-08-08T04:02:13.427Z,1.4
2022-08-08T04:02:51.967Z,1.4
2022-08-08T04:03:57.062Z,1.2
2022-08-08T04:05:04.430Z,1.2
2022-08-08T04:06:12.776Z,1.2
2022-08-08T04:07:21.452Z,1.2
2022-08-08T04:08:32.710Z,1.2
2022-08-08T04:09:59.216Z,1.2
2022-08-08T04:10:46.622Z,1.2
2022-08-08T04:11:58.505Z,1.2
2022-08-08T04:13:04.013Z,1.2
2022-08-08T04:14:33.207Z,1.9
2022-08-08T04:15:22.090Z,1.9
2022-08-08T04:16:38.269Z,1.9
2022-08-08T04:17:46.818Z,1.5
2022-08-08T04:18:48.662Z,1.5
2022-08-08T04:19:53.969Z,1.5
2022-08-08T04:21:02.497Z,1.6
2022-08-08T04:22:10.838Z,1.6
2022-08-08T04:23:19.208Z,1.6
2022-08-08T04:24:29.066Z,1.4
2022-08-08T04:25:38.511Z,1.4
2022-08-08T04:26:57.893Z,1.4
2022-08-08T04:28:03.737Z,1.2
2022-08-08T04:29:01.420Z,1.2
2022-08-08T04:30:17.598Z,1.2
2022-08-08T04:31:30.985Z,1.3
2022-08-08T04:32:30.189Z,1.3
2022-08-08T04:33:38.516Z,1.3
2022-08-08T04:34:55.283Z,1.4
2022-08-08T04:35:51.983Z,1.4
2022-08-08T04:37:04.017Z,1.4
2022-08-08T04:38:09.527Z,1.2
2022-08-08T04:39:48.598Z,1.2
2022-08-08T04:40:25.718Z,1.2
2022-08-08T04:41:35.915Z,1.3
2022-08-08T04:42:46.497Z,1.3
2022-08-08T04:43:53.988Z,1.3
2022-08-08T04:44:59.509Z,1.5
2022-08-08T04:46:07.867Z,1.5
2022-08-08T04:47:16.558Z,1.5
2022-08-08T04:48:24.781Z,1.3
2022-08-08T04:49:58.853Z,1.3
2022-08-08T04:50:44.652Z,1.3
2022-08-08T04:51:54.881Z,1.3
2022-08-08T04:52:58.811Z,1.3
2022-08-08T04:54:36.758Z,1.3
2022-08-08T04:55:15.397Z,1.6
2022-08-08T04:56:23.749Z,1.6
2022-08-08T04:57:32.117Z,1.6
2022-08-08T04:58:40.708Z,1.5
2022-08-08T04:59:49.065Z,1.5
2022-08-08T05:00:57.416Z,1.5
2022-08-08T05:02:06.037Z,1.1
2022-08-08T05:03:18.647Z,1.1
2022-08-08T05:04:22.835Z,1.1
2022-08-08T05:05:45.015Z,1.4
2022-08-08T05:06:39.735Z,1.4
2022-08-08T05:07:48.077Z,1.4
2022-08-08T05:09:02.617Z,1.7
2022-08-08T05:10:04.997Z,1.7
2022-08-08T05:11:16.191Z,1.7
2022-08-08T05:12:21.886Z,1.3
2022-08-08T05:13:30.237Z,1.3
2022-08-08T05:14:38.578Z,1.3
2022-08-08T05:16:49.029Z,1.5
2022-08-08T05:17:00.756Z,1.5
2022-08-08T05:18:03.853Z,1.5
2022-08-08T05:20:04.796Z,1.4
2022-08-08T05:20:20.797Z,1.4
2022-08-08T05:21:29.159Z,1.4
2022-08-08T05:22:37.726Z,1.4
2022-08-08T05:23:46.222Z,1.4
2022-08-08T05:24:54.452Z,1.4
2022-08-08T05:26:03.026Z,1.3
2022-08-08T05:27:11.367Z,1.3
2022-08-08T05:28:48.489Z,1.3
2022-08-08T05:29:29.205Z,1.5
2022-08-08T05:30:36.681Z,1.5
2022-08-08T05:32:02.824Z,1.5
2022-08-08T05:32:53.610Z,1.6
2022-08-08T05:34:01.964Z,1.6
2022-08-08T05:35:10.338Z,1.6
2022-08-08T05:36:25.309Z,1.5
2022-08-08T05:37:28.465Z,1.5
2022-08-08T05:38:35.661Z,1.5
2022-08-08T05:39:44.302Z,1.6
2022-08-08T05:40:57.304Z,1.6
2022-08-08T05:42:00.929Z,1.6
2022-08-08T05:43:15.630Z,1.9
2022-08-08T05:44:17.881Z,1.9
2022-08-08T05:45:31.594Z,1.9
2022-08-08T05:46:34.800Z,4.4
2022-08-08T05:47:52.990Z,4.4
2022-08-08T05:48:52.087Z,4.4
2022-08-08T05:50:00.152Z,4
2022-08-08T05:51:13.176Z,4
2022-08-08T05:52:16.833Z,4
2022-08-08T05:53:54.959Z,2.8
2022-08-08T05:54:43.402Z,2.8
2022-08-08T05:56:08.235Z,2.8
2022-08-08T05:56:50.714Z,1.7
2022-08-08T05:58:05.883Z,1.7
2022-08-08T05:59:12.584Z,1.7
2022-08-08T06:00:23.782Z,1.4
2022-08-08T06:01:50.763Z,1.4
2022-08-08T06:02:32.751Z,1.4
2022-08-08T06:03:42.027Z,1.2
2022-08-08T06:04:54.498Z,1.2
2022-08-08T06:05:59.128Z,1.2
2022-08-08T06:07:06.558Z,1.3
2022-08-08T06:08:28.843Z,1.3
2022-08-08T06:09:42.331Z,1.3
2022-08-08T06:10:31.832Z,1.2
2022-08-08T06:11:45.812Z,1.2
2022-08-08T06:12:48.531Z,1.2
2022-08-08T06:13:57.089Z,1.3
2022-08-08T06:15:06.189Z,1.3
2022-08-08T06:16:13.808Z,1.3
2022-08-08T06:17:31.930Z,1.3
2022-08-08T06:18:30.713Z,1.3
2022-08-08T06:19:39.061Z,1.3
2022-08-08T06:20:49.537Z,1.3
2022-08-08T06:21:57.173Z,1.3
2022-08-08T06:23:04.315Z,1.3
2022-08-08T06:24:13.688Z,1.3
2022-08-08T06:25:33.472Z,1.3
2022-08-08T06:26:35.533Z,1.3
2022-08-08T06:27:38.760Z,1.2
2022-08-08T06:28:46.472Z,1.2
2022-08-08T06:30:00.582Z,1.2
2022-08-08T06:31:03.401Z,3
2022-08-08T06:32:14.898Z,3
2022-08-08T06:33:36.731Z,3
2022-08-08T06:34:28.732Z,2.3
2022-08-08T06:36:03.769Z,2.3
2022-08-08T06:36:47.784Z,2.3
2022-08-08T06:37:55.915Z,1.7
2022-08-08T06:39:05.370Z,1.7
2022-08-08T06:40:14.346Z,1.7
2022-08-08T06:41:19.291Z,1.3
2022-08-08T06:42:28.264Z,1.3
2022-08-08T06:43:36.037Z,1.3
2022-08-08T06:44:44.602Z,1.3
2022-08-08T06:45:52.981Z,1.3
2022-08-08T06:47:01.642Z,1.3
2022-08-08T06:48:10.091Z,1.1
2022-08-08T06:49:18.285Z,1.1
2022-08-08T06:50:34.069Z,1.1
2022-08-08T06:51:47.302Z,1.6
2022-08-08T06:52:43.633Z,1.6
2022-08-08T06:53:56.098Z,1.6
2022-08-08T06:55:00.556Z,1.1
2022-08-08T06:56:08.976Z,1.1
2022-08-08T06:57:17.286Z,1.1
2022-08-08T06:58:30.630Z,1.3
2022-08-08T06:59:34.480Z,1.3
2022-08-08T07:00:42.573Z,1.3
2022-08-08T07:02:18.497Z,1.5
2022-08-08T07:02:59.588Z,1.5
2022-08-08T07:04:36.322Z,1.5
2022-08-08T07:05:20.238Z,1.4
2022-08-08T07:06:26.828Z,1.4
2022-08-08T07:07:33.202Z,1.4
2022-08-08T07:08:41.765Z,1.7
2022-08-08T07:09:56.736Z,1.7
2022-08-08T07:10:58.497Z,1.7
2022-08-08T07:12:07.068Z,1.3
2022-08-08T07:13:15.424Z,1.3
2022-08-08T07:14:23.794Z,1.3
2022-08-08T07:16:01.246Z,1.2
2022-08-08T07:16:50.135Z,1.2
2022-08-08T07:17:56.787Z,1.2
2022-08-08T07:18:57.812Z,1.4
2022-08-08T07:20:06.009Z,1.4
2022-08-08T07:21:18.773Z,1.4
2022-08-08T07:22:22.942Z,1.3
2022-08-08T07:23:57.830Z,1.3
2022-08-08T07:24:40.523Z,1.3
2022-08-08T07:25:54.357Z,1.2
2022-08-08T07:26:57.689Z,1.2
2022-08-08T07:28:07.602Z,1.2
2022-08-08T07:29:20.343Z,1.5
2022-08-08T07:30:25.447Z,1.5
2022-08-08T07:31:30.319Z,1.5
2022-08-08T07:32:38.883Z,2.6
2022-08-08T07:33:53.212Z,2.6
2022-08-08T07:35:00.646Z,2.6
2022-08-08T07:36:04.167Z,0.9
2022-08-08T07:37:13.335Z,0.9
2022-08-08T07:38:24.844Z,0.9
2022-08-08T07:39:35.490Z,1
2022-08-08T07:40:37.921Z,1
2022-08-08T07:41:58.956Z,1
2022-08-08T07:42:54.813Z,1
2022-08-08T07:44:07.066Z,1
2022-08-08T07:45:11.542Z,1
2022-08-08T07:46:24.288Z,1
2022-08-08T07:47:29.286Z,1
2022-08-08T07:48:37.020Z,1
2022-08-08T07:49:46.137Z,0.7
2022-08-08T07:50:54.059Z,0.7
2022-08-08T07:52:02.412Z,0.7
2022-08-08T07:53:10.983Z,0.9
2022-08-08T07:54:24.246Z,0.9
2022-08-08T07:55:28.865Z,0.9
2022-08-08T07:56:37.197Z,0.9
2022-08-08T07:57:48.369Z,0.9
2022-08-08T07:58:53.000Z,0.9
2022-08-08T08:00:01.572Z,1
2022-08-08T08:01:09.974Z,1
2022-08-08T08:02:32.714Z,1
2022-08-08T08:03:28.347Z,1
2022-08-08T08:04:35.986Z,1
2022-08-08T08:05:43.623Z,1
2022-08-08T08:06:52.187Z,1
2022-08-08T08:08:00.538Z,1
2022-08-08T08:09:08.910Z,1
2022-08-08T08:10:17.483Z,1
2022-08-08T08:11:33.797Z,1
2022-08-08T08:12:35.392Z,1
2022-08-08T08:14:06.529Z,1
2022-08-08T08:14:51.121Z,1
2022-08-08T08:15:59.487Z,1
2022-08-08T08:17:08.610Z,1.2
2022-08-08T08:18:16.411Z,1.2
2022-08-08T08:19:24.781Z,1.2
2022-08-08T08:20:33.351Z,1.2
2022-08-08T08:21:44.637Z,1.2
2022-08-08T08:22:50.108Z,1.2
2022-08-08T08:23:59.920Z,0.9
2022-08-08T08:25:07.370Z,0.9
2022-08-08T08:26:17.975Z,0.9
2022-08-08T08:27:24.107Z,1.2
2022-08-08T08:28:32.468Z,1.2
2022-08-08T08:29:42.337Z,1.2
2022-08-08T08:30:49.449Z,1.1
2022-08-08T08:31:59.125Z,1.1
2022-08-08T08:33:06.215Z,1.1
2022-08-08T08:34:14.782Z,1
2022-08-08T08:35:29.571Z,1
2022-08-08T08:36:31.540Z,1
2022-08-08T08:37:53.225Z,1.2
2022-08-08T08:38:49.177Z,1.2
2022-08-08T08:39:59.629Z,1.2
2022-08-08T08:41:06.196Z,1.4
2022-08-08T08:42:13.857Z,1.4
2022-08-08T08:43:26.593Z,1.4
2022-08-08T08:44:30.817Z,1
2022-08-08T08:45:39.189Z,1
2022-08-08T08:46:51.109Z,1
2022-08-08T08:47:58.338Z,0.9
2022-08-08T08:49:04.522Z,0.9
2022-08-08T08:50:17.363Z,0.9
2022-08-08T08:51:21.497Z,1.1
2022-08-08T08:52:29.853Z,1.1
2022-08-08T08:53:55.766Z,1.1
2022-08-08T08:54:46.823Z,0.9
2022-08-08T08:55:55.215Z,0.9
2022-08-08T08:57:03.584Z,0.9
2022-08-08T08:58:12.230Z,0.9
2022-08-08T08:59:23.683Z,0.9
2022-08-08T09:00:39.720Z,0.9
2022-08-08T09:01:37.666Z,1
2022-08-08T09:02:45.996Z,1
2022-08-08T09:03:54.368Z,1
2022-08-08T09:05:02.976Z,1.1
2022-08-08T09:06:19.425Z,1.1
2022-08-08T09:07:19.709Z,1.1
2022-08-08T09:08:28.292Z,1.1
2022-08-08T09:09:38.875Z,1.1
2022-08-08T09:10:48.040Z,1.1
2022-08-08T09:12:01.928Z,1
2022-08-08T09:13:01.987Z,1
2022-08-08T09:14:10.456Z,1
2022-08-08T09:15:37.368Z,1.3
2022-08-08T09:16:28.856Z,1.3
2022-08-08T09:17:41.433Z,1.3
2022-08-08T09:18:44.350Z,1.3
2022-08-08T09:21:55.242Z,1.3
2022-08-08T09:21:55.855Z,1.3
2022-08-08T09:22:09.713Z,1
2022-08-08T09:23:25.623Z,1
2022-08-08T09:24:26.512Z,1
2022-08-08T09:25:35.825Z,1.2
2022-08-08T09:26:47.296Z,1.2
2022-08-08T09:27:57.789Z,1.2
2022-08-08T09:29:02.325Z,1.6
2022-08-08T09:30:09.904Z,1.6
2022-08-08T09:31:17.334Z,1.6
2022-08-08T09:32:31.112Z,1.2
2022-08-08T09:33:55.818Z,1.2
2022-08-08T09:34:45.659Z,1.2
2022-08-08T09:35:51.373Z,1.2
2022-08-08T09:37:29.409Z,1.2
2022-08-08T09:38:09.486Z,1.2
2022-08-08T09:39:19.213Z,1.3
2022-08-08T09:40:35.848Z,1.3
2022-08-08T09:41:33.815Z,1.3
2022-08-08T09:42:43.664Z,1
2022-08-08T09:44:05.856Z,1
2022-08-08T09:45:03.789Z,1
2022-08-08T09:46:07.609Z,1
2022-08-08T09:47:23.333Z,1
2022-08-08T09:48:26.965Z,1
2022-08-08T09:49:41.966Z,1
2022-08-08T09:50:43.847Z,1
2022-08-08T09:52:02.204Z,1
2022-08-08T09:53:00.957Z,1.2
2022-08-08T09:54:09.722Z,1.2
2022-08-08T09:55:15.387Z,1.2
2022-08-08T09:56:25.236Z,1
2022-08-08T09:57:35.139Z,1
2022-08-08T09:58:41.288Z,1
2022-08-08T10:00:02.716Z,1.3
2022-08-08T10:00:58.062Z,1.3
2022-08-08T10:02:12.202Z,1.3
2022-08-08T10:03:14.247Z,1.1
2022-08-08T10:04:35.663Z,1.1
2022-08-08T10:05:31.253Z,1.1
2022-08-08T10:06:39.608Z,1.1
2022-08-08T10:07:47.969Z,1.1
2022-08-08T10:08:56.331Z,1.1
2022-08-08T10:10:06.760Z,1
2022-08-08T10:12:22.624Z,1
2022-08-08T10:12:22.745Z,1
2022-08-08T10:13:32.562Z,1
2022-08-08T10:14:39.328Z,1
2022-08-08T10:15:59.564Z,1
2022-08-08T10:16:55.606Z,0.9
2022-08-08T10:18:07.625Z,0.9
2022-08-08T10:19:12.369Z,0.9
2022-08-08T10:20:23.525Z,1.2
2022-08-08T10:21:32.985Z,1.2
2022-08-08T10:22:37.705Z,1.2
2022-08-08T10:23:50.935Z,1.2
2022-08-08T10:24:54.677Z,1.2
2022-08-08T10:26:03.060Z,1.2
2022-08-08T10:27:13.003Z,1
2022-08-08T10:28:20.015Z,1
2022-08-08T10:29:30.625Z,1
2022-08-08T10:30:57.152Z,1
2022-08-08T10:31:47.140Z,1
2022-08-08T10:32:53.811Z,1
2022-08-08T10:34:19.688Z,1
2022-08-08T10:35:11.890Z,1
2022-08-08T10:36:21.135Z,1
2022-08-08T10:37:27.765Z,1.1
2022-08-08T10:38:36.082Z,1.1
2022-08-08T10:39:53.562Z,1.1
2022-08-08T10:40:53.574Z,1
2022-08-08T10:42:13.185Z,1
2022-08-08T10:43:10.162Z,1
2022-08-08T10:44:18.578Z,1.2
2022-08-08T10:45:26.946Z,1.2
2022-08-08T10:46:35.299Z,1.2
2022-08-08T10:47:48.391Z,1.1
2022-08-08T10:48:55.773Z,1.1
2022-08-08T10:50:02.943Z,1.1
2022-08-08T10:51:09.306Z,1.1
2022-08-08T10:52:17.665Z,1.1
2022-08-08T10:53:39.487Z,1.1
2022-08-08T10:54:37.547Z,1.2
2022-08-08T10:55:45.873Z,1.2
2022-08-08T10:56:51.622Z,1.2
2022-08-08T10:58:00.238Z,1.2
2022-08-08T10:59:08.624Z,1.2
2022-08-08T11:00:17.011Z,1.2
2022-08-08T11:01:25.694Z,1.2
2022-08-08T11:02:34.270Z,1.2
2022-08-08T11:03:52.940Z,1.2
2022-08-08T11:04:52.929Z,1.2
2022-08-08T11:06:00.523Z,1.2
2022-08-08T11:07:09.715Z,1.2
2022-08-08T11:08:32.042Z,1.1
2022-08-08T11:09:26.362Z,1.1
2022-08-08T11:10:34.773Z,1.1
2022-08-08T11:12:00.922Z,1.2
2022-08-08T11:13:01.957Z,1.2
2022-08-08T11:14:00.807Z,1.2
2022-08-08T11:15:08.703Z,1.2
2022-08-08T11:16:32.748Z,1.2
2022-08-08T11:17:59.153Z,1.2
2022-08-08T11:18:34.078Z,1.1
2022-08-08T11:19:42.474Z,1.1
2022-08-08T11:20:52.190Z,1.1
2022-08-08T11:21:59.431Z,1
2022-08-08T11:23:07.815Z,1
2022-08-08T11:24:16.221Z,1
2022-08-08T11:25:43.743Z,1.1
2022-08-08T11:26:33.213Z,1.1
2022-08-08T11:27:41.574Z,1.1
2022-08-08T11:28:50.413Z,1.1
2022-08-08T11:30:04.300Z,1.1
2022-08-08T11:31:08.641Z,1.1
2022-08-08T11:32:15.566Z,1
2022-08-08T11:33:51.052Z,1
2022-08-08T11:34:41.835Z,1
2022-08-08T11:35:42.806Z,1
2022-08-08T11:36:50.900Z,1
2022-08-08T11:38:07.400Z,1
2022-08-08T11:39:10.968Z,1.3
2022-08-08T11:40:15.960Z,1.3
2022-08-08T11:41:24.483Z,1.3
2022-08-08T11:42:33.173Z,1.1
2022-08-08T11:43:42.272Z,1.1
2022-08-08T11:44:49.628Z,1.1
2022-08-08T11:46:10.238Z,1
2022-08-08T11:47:12.722Z,1
2022-08-08T11:48:20.283Z,1
2022-08-08T11:49:23.539Z,1.1
2022-08-08T11:50:31.907Z,1.1
2022-08-08T11:51:50.124Z,1.1
2022-08-08T11:52:48.963Z,0.9
2022-08-08T11:53:59.382Z,0.9
2022-08-08T11:55:05.994Z,0.9
2022-08-08T11:56:14.192Z,1.1
2022-08-08T11:57:23.885Z,1.1
2022-08-08T11:58:30.947Z,1.1
2022-08-08T11:59:41.765Z,1
2022-08-08T12:00:47.877Z,1
2022-08-08T12:02:09.827Z,1
2022-08-08T12:03:04.888Z,1
2022-08-08T12:04:13.193Z,1
2022-08-08T12:05:22.594Z,1
2022-08-08T12:06:30.123Z,1
2022-08-08T12:07:38.502Z,1
2022-08-08T12:08:46.892Z,1
2022-08-08T12:09:57.216Z,0.9
2022-08-08T12:11:03.830Z,0.9
2022-08-08T12:12:12.195Z,0.9
2022-08-08T12:13:20.793Z,1
2022-08-08T12:14:29.525Z,1
2022-08-08T12:15:39.850Z,1
2022-08-08T12:16:47.410Z,1
2022-08-08T12:17:54.502Z,1
2022-08-08T12:19:05.821Z,1
2022-08-08T12:20:14.672Z,1
2022-08-08T12:21:19.831Z,1
2022-08-08T12:22:33.531Z,1
2022-08-08T12:23:39.901Z,1
2022-08-08T12:24:51.632Z,1
2022-08-08T12:25:55.191Z,1
2022-08-08T12:27:03.325Z,1.3
2022-08-08T12:28:14.493Z,1.3
2022-08-08T12:29:19.201Z,1.3
2022-08-08T12:30:27.456Z,1.1
2022-08-08T12:31:38.922Z,1.1
2022-08-08T12:32:44.197Z,1.1
2022-08-08T12:34:02.352Z,1.1
2022-08-08T12:35:04.282Z,1.1
2022-08-08T12:36:09.524Z,1.1
2022-08-08T12:37:18.107Z,1.1
2022-08-08T12:38:29.496Z,1.1
2022-08-08T12:39:58.262Z,1.1
2022-08-08T12:40:44.586Z,1
2022-08-08T12:41:57.605Z,1
2022-08-08T12:43:00.224Z,1
2022-08-08T12:44:08.794Z,1.3
2022-08-08T12:45:20.144Z,1.3
2022-08-08T12:46:26.586Z,1.3
2022-08-08T12:47:58.219Z,1.4
2022-08-08T12:48:47.526Z,1.4
2022-08-08T12:49:50.876Z,1.4
2022-08-08T12:50:59.464Z,1.2
2022-08-08T12:52:14.093Z,1.2
2022-08-08T12:53:16.209Z,1.2
2022-08-08T12:54:25.206Z,1.1
2022-08-08T12:55:50.240Z,1.1
2022-08-08T12:56:41.552Z,1.1
2022-08-08T12:57:56.463Z,1.1
2022-08-08T12:58:58.506Z,1.1
2022-08-08T13:00:11.336Z,1.1
2022-08-08T13:01:15.509Z,1.1
2022-08-08T13:02:28.167Z,1.1
2022-08-08T13:03:33.473Z,1.1
2022-08-08T13:04:40.807Z,0.9
2022-08-08T13:06:02.924Z,0.9
2022-08-08T13:06:58.745Z,0.9
2022-08-08T13:08:06.145Z,1.2
2022-08-08T13:09:14.535Z,1.2
2022-08-08T13:10:27.766Z,1.2
2022-08-08T13:12:18.197Z,1.2
2022-08-08T13:12:44.575Z,1.2
2022-08-08T13:13:48.276Z,1.2
2022-08-08T13:14:56.889Z,1.3
2022-08-08T13:16:05.266Z,1.3
2022-08-08T13:17:54.779Z,1.3
2022-08-08T13:18:24.805Z,1.1
2022-08-08T13:19:41.285Z,1.1
2022-08-08T13:20:39.061Z,1.1
2022-08-08T13:21:49.338Z,1.2
2022-08-08T13:23:13.824Z,1.2
2022-08-08T13:24:04.448Z,1.2
2022-08-08T13:25:13.035Z,1.1
2022-08-08T13:26:21.456Z,1.1
2022-08-08T13:27:35.378Z,1.1
2022-08-08T13:28:38.414Z,1.1
2022-08-08T13:29:46.781Z,1.1
2022-08-08T13:30:55.177Z,1.1
2022-08-08T13:32:03.774Z,1
2022-08-08T13:33:12.168Z,1
2022-08-08T13:34:21.365Z,1
2022-08-08T13:35:39.151Z,1.2
2022-08-08T13:36:37.535Z,1.2
2022-08-08T13:37:52.008Z,1.2
2022-08-08T13:38:54.569Z,1
2022-08-08T13:40:02.920Z,1
2022-08-08T13:41:15.847Z,1
2022-08-08T13:42:20.734Z,1.5
2022-08-08T13:43:28.306Z,1.5
2022-08-08T13:44:38.681Z,1.5
2022-08-08T13:45:47.368Z,1.1
2022-08-08T13:46:53.693Z,1.1
2022-08-08T13:48:02.123Z,1.1
2022-08-08T13:49:11.062Z,1.3
2022-08-08T13:50:34.392Z,1.3
2022-08-08T13:51:34.364Z,1.3
2022-08-08T13:52:38.067Z,1.2
2022-08-08T13:53:53.513Z,1.2
2022-08-08T13:54:52.870Z,1.2
2022-08-08T13:56:01.674Z,1.1
2022-08-08T13:57:11.216Z,1.1
2022-08-08T13:58:19.823Z,1.1
2022-08-08T13:59:26.805Z,1.1
2022-08-08T14:00:35.159Z,1.1
2022-08-08T14:01:53.193Z,1.1
2022-08-08T14:02:52.229Z,1.1
2022-08-08T14:04:00.640Z,1.1
2022-08-08T14:05:20.801Z,1.1
2022-08-08T14:06:20.762Z,1.2
2022-08-08T14:07:26.014Z,1.2
2022-08-08T14:08:34.658Z,1.2
2022-08-08T14:10:02.569Z,1.2
2022-08-08T14:10:51.365Z,1.2
2022-08-08T14:11:59.747Z,1.2
2022-08-08T14:13:08.360Z,1.1
2022-08-08T14:14:20.464Z,1.1
2022-08-08T14:15:31.304Z,1.1
2022-08-08T14:16:33.728Z,1.4
2022-08-08T14:17:58.647Z,1.4
2022-08-08T14:18:51.663Z,1.4
2022-08-08T14:20:05.995Z,1.3
2022-08-08T14:21:07.966Z,1.3
2022-08-08T14:22:18.371Z,1.3
2022-08-08T14:24:04.997Z,1.4
2022-08-08T14:24:32.850Z,1.4
2022-08-08T14:25:41.226Z,1.4
2022-08-08T14:26:49.827Z,1.3
2022-08-08T14:27:59.880Z,1.3
2022-08-08T14:29:11.724Z,1.3
2022-08-08T15:07:36.785Z,0
2022-08-08T15:08:54.925Z,0
2022-08-08T15:09:52.845Z,0
2022-08-08T15:11:01.509Z,1.5
2022-08-08T15:12:11.057Z,1.5
2022-08-08T15:13:20.577Z,1.5
2022-08-08T15:14:28.201Z,1.6
2022-08-08T15:16:01.141Z,1.6
2022-08-08T15:17:03.066Z,1.6
2022-08-08T15:18:11.724Z,1.6
2022-08-08T15:19:20.143Z,1.6
2022-08-08T15:20:28.606Z,1.6
2022-08-08T15:21:37.840Z,1.4
2022-08-08T15:22:45.740Z,1.4
2022-08-08T15:23:54.162Z,1.4
2022-08-08T15:25:02.818Z,1.5
2022-08-08T15:26:12.946Z,1.5
2022-08-08T15:27:20.276Z,1.5
2022-08-08T15:28:34.322Z,1.4
2022-08-08T15:29:36.836Z,1.4
2022-08-08T15:30:45.743Z,1.4
2022-08-08T15:32:04.135Z,1.5
2022-08-08T15:33:02.418Z,1.5
2022-08-08T15:34:19.002Z,1.5
2022-08-08T15:35:19.502Z,1.4
2022-08-08T15:36:28.406Z,1.4
2022-08-08T15:37:36.388Z,1.4
2022-08-08T15:38:49.532Z,1.6
2022-08-08T15:39:53.478Z,1.6
2022-08-08T15:41:01.905Z,1.6
2022-08-08T15:42:13.509Z,1.4
2022-08-08T15:43:34.811Z,1.4
2022-08-08T15:44:27.467Z,1.4
2022-08-08T15:45:36.115Z,1.5
2022-08-08T15:46:45.388Z,1.5
2022-08-08T15:47:57.587Z,1.5
2022-08-08T15:49:01.638Z,1.4
2022-08-08T15:50:19.856Z,1.4
2022-08-08T15:51:18.527Z,1.4
2022-08-08T15:52:27.188Z,1.5
2022-08-08T15:53:40.447Z,1.5
2022-08-08T15:54:46.147Z,1.5
2022-08-08T15:55:52.678Z,1.4
2022-08-08T15:57:01.143Z,1.4
2022-08-08T15:58:09.582Z,1.4
2022-08-08T15:59:18.256Z,1.2
2022-08-08T16:00:28.340Z,1.2
2022-08-08T16:01:40.350Z,1.2
2022-08-08T16:02:50.236Z,1.4
2022-08-08T16:03:52.265Z,1.4
2022-08-08T16:05:00.663Z,1.4
2022-08-08T16:06:13.550Z,1.6
2022-08-08T16:07:17.784Z,1.6
2022-08-08T16:08:26.190Z,1.6
2022-08-08T16:13:01.311Z,1.4
2022-08-08T16:13:01.449Z,1.4
2022-08-08T16:13:06.614Z,1.4
2022-08-08T16:13:29.561Z,1.5
2022-08-08T16:14:13.257Z,1.5
2022-08-08T16:15:17.654Z,1.5
2022-08-08T16:16:26.318Z,1.4
2022-08-08T16:17:39.088Z,1.4
2022-08-08T16:18:43.245Z,1.4
2022-08-08T16:19:57.297Z,1.4
2022-08-08T16:21:01.404Z,1.4
2022-08-08T16:22:09.578Z,1.4
2022-08-08T16:23:18.158Z,1.3
2022-08-08T16:24:26.555Z,1.3
2022-08-08T16:25:46.036Z,1.3
2022-08-08T16:26:43.510Z,1.7
2022-08-08T16:27:56.849Z,1.7
2022-08-08T16:29:00.259Z,1.7
2022-08-08T16:30:14.062Z,1.4
2022-08-08T16:31:17.263Z,1.4
2022-08-08T16:32:27.695Z,1.4